Time;durP1;ratioP1;P1;durP2;ratioP2;P2;SDS_P1;SDS_P2;PMS_P1;PMS_P2;Temp;Humidity;BMP_temperature;BMP_pressure;BME280_temperature;BME280_humidity;BME280_pressure;Samples;Min_cycle;Max_cycle;Signal;HPM_P1;HPM_P2
2022/02/26 00:00:25;;;;;;;19.60;9.93;;;;;;;-2.81;91.77;95149.13;5114339;27;20086;-45
2022/02/26 00:02:52;;;;;;;19.70;10.40;;;;;;;-2.76;91.67;95152.06;5110849;27;20043;-47
2022/02/26 00:05:19;;;;;;;27.85;12.55;;;;;;;-2.76;91.11;95146.94;5115863;27;20088;-47
2022/02/26 00:07:45;;;;;;;22.73;9.45;;;;;;;-2.82;90.98;95142.44;5109073;27;20508;-45
2022/02/26 00:10:12;;;;;;;23.58;9.50;;;;;;;-2.78;91.05;95141.19;5112404;27;20075;-45
2022/02/26 00:12:39;;;;;;;18.27;10.13;;;;;;;-2.84;90.72;95134.13;5111913;27;20486;-48
2022/02/26 00:15:06;;;;;;;20.65;9.35;;;;;;;-2.91;90.62;95134.66;5107259;27;20577;-45
2022/02/26 00:17:35;;;;;;;16.70;7.55;;;;;;;-2.97;90.90;95145.44;5109013;27;20043;-45
2022/02/26 00:20:06;;;;;;;37.15;9.07;;;;;;;-3.02;91.11;95147.59;5116109;27;20043;-46
2022/02/26 00:22:33;;;;;;;13.40;7.18;;;;;;;-3.09;91.50;95136.34;5107602;27;20058;-46
2022/02/26 00:25:00;;;;;;;24.75;8.25;;;;;;;-3.14;92.07;95128.31;5108348;27;20043;-46
2022/02/26 00:27:26;;;;;;;16.63;8.60;;;;;;;-3.12;92.15;95128.97;5110018;27;20055;-46
2022/02/26 00:29:53;;;;;;;21.27;7.63;;;;;;;-3.16;92.60;95135.28;5109343;27;20046;-46
2022/02/26 00:32:20;;;;;;;24.00;9.90;;;;;;;-3.11;92.68;95126.28;5110884;27;20040;-46
2022/02/26 00:34:47;;;;;;;23.67;10.40;;;;;;;-3.18;93.50;95134.63;5108580;27;20044;-46
2022/02/26 00:37:14;;;;;;;19.77;8.40;;;;;;;-3.15;92.93;95121.59;5111679;27;20555;-46
2022/02/26 00:39:41;;;;;;;14.88;8.35;;;;;;;-3.11;93.33;95138.22;5107250;27;20096;-46
2022/02/26 00:42:08;;;;;;;19.13;8.77;;;;;;;-3.04;93.84;95149.47;5107427;27;20055;-45
2022/02/26 00:44:38;;;;;;;26.10;9.25;;;;;;;-2.96;94.05;95153.88;5110050;27;20039;-46
2022/02/26 00:47:07;;;;;;;25.30;10.65;;;;;;;-2.98;93.79;95148.91;5108082;27;20046;-46
2022/02/26 00:49:47;;;;;;;18.90;9.18;;;;;;;-2.89;93.35;95155.72;5108336;27;20054;-45
2022/02/26 00:52:35;;;;;;;20.42;10.95;;;;;;;-3.01;93.03;95138.97;5107569;27;20043;-46
2022/02/26 00:55:06;;;;;;;15.70;8.20;;;;;;;-3.00;93.43;95145.69;5107486;27;20044;-44
2022/02/26 00:57:33;;;;;;;18.92;8.70;;;;;;;-2.95;93.18;95153.75;5111442;27;20063;-48
2022/02/26 01:00:00;;;;;;;18.38;9.75;;;;;;;-3.01;93.71;95140.75;5111249;27;20112;-44
2022/02/26 01:02:26;;;;;;;16.00;7.80;;;;;;;-2.90;93.67;95145.66;5107182;27;20054;-47
2022/02/26 01:04:54;;;;;;;19.33;8.48;;;;;;;-2.80;93.10;95140.53;5107526;27;20031;-48
2022/02/26 01:07:20;;;;;;;14.00;7.75;;;;;;;-2.88;92.33;95152.25;5107664;27;20051;-47
2022/02/26 01:09:47;;;;;;;16.77;8.23;;;;;;;-2.92;92.47;95148.38;5107609;27;20043;-48
2022/02/26 01:12:15;;;;;;;18.23;8.13;;;;;;;-3.00;92.53;95150.78;5107962;27;20059;-45
2022/02/26 01:14:43;;;;;;;11.43;7.32;;;;;;;-3.06;92.38;95146.28;5106729;27;20051;-45
2022/02/26 01:17:12;;;;;;;18.40;8.75;;;;;;;-3.05;92.52;95142.75;5106394;27;20112;-46
2022/02/26 01:19:40;;;;;;;20.48;10.45;;;;;;;-3.05;92.88;95145.31;5113818;27;20709;-44
2022/02/26 01:22:07;;;;;;;15.73;8.48;;;;;;;-3.12;93.42;95136.63;5113896;27;20754;-45
2022/02/26 01:24:34;;;;;;;16.45;8.55;;;;;;;-3.18;93.99;95143.06;5110529;27;20055;-48
2022/02/26 01:27:02;;;;;;;25.33;10.30;;;;;;;-3.14;93.74;95154.59;5111995;27;20043;-45
2022/02/26 01:29:30;;;;;;;34.42;18.90;;;;;;;-3.21;93.48;95150.97;5109664;27;20063;-45
2022/02/26 01:31:58;;;;;;;21.33;11.35;;;;;;;-3.25;93.44;95152.22;5106013;27;20557;-47
2022/02/26 01:34:32;;;;;;;15.57;7.95;;;;;;;-3.21;93.78;95147.63;5107073;27;20048;-47
2022/02/26 01:37:03;;;;;;;18.90;7.43;;;;;;;-3.24;94.02;95143.63;5111747;27;20126;-45
2022/02/26 01:39:29;;;;;;;18.33;8.13;;;;;;;-3.24;94.26;95141.09;5106381;27;20047;-46
2022/02/26 01:41:57;;;;;;;12.57;7.50;;;;;;;-3.23;94.27;95149.53;5108140;27;20059;-47
2022/02/26 01:44:25;;;;;;;14.20;6.90;;;;;;;-3.27;94.79;95149.78;5111382;27;20050;-45
2022/02/26 01:46:52;;;;;;;13.88;6.10;;;;;;;-3.30;95.37;95139.06;5107677;27;20047;-50
2022/02/26 01:49:19;;;;;;;16.20;6.82;;;;;;;-3.30;96.09;95144.97;5112856;27;20069;-48
2022/02/26 01:51:46;;;;;;;15.38;8.88;;;;;;;-3.25;95.79;95146.31;5111896;27;20125;-46
2022/02/26 01:54:13;;;;;;;44.28;18.33;;;;;;;-3.25;95.48;95148.88;5106439;27;20046;-46
2022/02/26 01:56:40;;;;;;;30.83;15.20;;;;;;;-3.30;95.79;95139.88;5106768;27;20102;-46
2022/02/26 01:59:07;;;;;;;25.52;13.05;;;;;;;-3.30;95.33;95139.88;5106774;27;20055;-45
2022/02/26 02:01:34;;;;;;;29.38;10.60;;;;;;;-3.29;95.13;95146.59;5107046;27;20481;-47
2022/02/26 02:04:01;;;;;;;22.33;9.52;;;;;;;-3.22;94.99;95146.03;5107060;27;20485;-46
2022/02/26 02:06:29;;;;;;;16.00;8.25;;;;;;;-3.28;95.12;95158.41;5106090;27;20067;-46
2022/02/26 02:08:56;;;;;;;16.20;7.28;;;;;;;-3.23;95.05;95152.06;5104816;27;20058;-46
2022/02/26 02:11:23;;;;;;;14.52;6.75;;;;;;;-3.22;95.37;95161.31;5104162;28;20123;-46
2022/02/26 02:13:50;;;;;;;21.80;8.95;;;;;;;-3.28;95.34;95157.56;5112785;28;20096;-45
2022/02/26 02:16:18;;;;;;;18.00;8.30;;;;;;;-3.30;95.14;95160.25;5105181;28;20085;-45
2022/02/26 02:18:44;;;;;;;11.75;5.43;;;;;;;-3.47;95.05;95150.78;5114671;28;20571;-47
2022/02/26 02:21:13;;;;;;;19.52;7.38;;;;;;;-3.46;95.37;95162.56;5107061;28;20058;-48
2022/02/26 02:23:41;;;;;;;21.33;10.57;;;;;;;-3.52;95.99;95165.66;5105990;28;20054;-45
2022/02/26 02:26:09;;;;;;;26.63;11.05;;;;;;;-3.52;96.53;95165.66;5107479;28;20055;-45
2022/02/26 02:28:38;;;;;;;55.63;14.88;;;;;;;-3.50;96.97;95168.88;5106446;28;20108;-46
2022/02/26 02:31:06;;;;;;;66.85;21.48;;;;;;;-3.51;96.92;95172.34;5112446;28;20051;-47
2022/02/26 02:33:41;;;;;;;34.83;14.80;;;;;;;-3.51;97.55;95172.34;5106988;28;20056;-46
2022/02/26 02:36:07;;;;;;;19.15;9.65;;;;;;;-3.48;98.05;95177.19;5104829;28;20054;-49
2022/02/26 02:38:34;;;;;;;27.55;10.18;;;;;;;-3.47;97.79;95169.41;5105912;28;20043;-47
2022/02/26 02:41:02;;;;;;;32.85;10.48;;;;;;;-3.45;98.18;95166.72;5111423;28;20470;-45
2022/02/26 02:43:30;;;;;;;22.10;9.93;;;;;;;-3.36;97.84;95168.44;5108930;28;20047;-46
2022/02/26 02:45:57;;;;;;;20.70;9.52;;;;;;;-3.31;97.71;95180.78;5106762;28;20055;-46
2022/02/26 02:48:24;;;;;;;27.05;10.88;;;;;;;-3.33;97.38;95165.63;5112560;28;20122;-46
2022/02/26 02:50:51;;;;;;;21.75;8.00;;;;;;;-3.34;97.06;95175.97;5110661;28;20047;-47
2022/02/26 02:53:18;;;;;;;22.63;8.30;;;;;;;-3.28;96.92;95183.03;5109456;28;20051;-46
2022/02/26 02:55:47;;;;;;;20.70;10.02;;;;;;;-3.24;97.20;95179.31;5106940;28;20043;-45
2022/02/26 02:58:22;;;;;;;17.20;7.50;;;;;;;-3.17;97.53;95184.63;5112660;28;20055;-46
2022/02/26 03:00:50;;;;;;;20.08;10.02;;;;;;;-3.21;98.53;95185.84;5106589;28;20070;-46
2022/02/26 03:03:17;;;;;;;18.23;10.68;;;;;;;-3.27;99.17;95193.09;5112988;28;20050;-50
2022/02/26 03:05:45;;;;;;;20.15;9.05;;;;;;;-3.31;100.00;95189.22;5106901;28;20051;-47
2022/02/26 03:08:12;;;;;;;19.27;10.75;;;;;;;-3.29;100.00;95189.88;5110501;28;20063;-47
2022/02/26 03:10:39;;;;;;;26.10;12.88;;;;;;;-3.29;100.00;95187.34;5109345;28;20531;-46
2022/02/26 03:13:06;;;;;;;33.53;13.38;;;;;;;-3.23;100.00;95195.38;5106377;28;20462;-47
2022/02/26 03:15:33;;;;;;;28.95;13.73;;;;;;;-3.23;99.65;95196.19;5103508;28;20106;-47
2022/02/26 03:18:00;;;;;;;33.10;13.07;;;;;;;-3.22;99.36;95202.06;5110412;28;20048;-47
2022/02/26 03:20:29;;;;;;;37.05;14.48;;;;;;;-3.25;99.10;95202.38;5107777;27;20543;-46
2022/02/26 03:22:56;;;;;;;30.45;13.23;;;;;;;-3.32;98.40;95213.09;5108175;27;20044;-46
2022/02/26 03:25:24;;;;;;;20.85;9.93;;;;;;;-3.42;97.84;95207.22;5111862;27;20067;-47
2022/02/26 03:27:55;;;;;;;20.15;10.02;;;;;;;-3.52;97.29;95211.50;5109999;27;20131;-47
2022/02/26 03:30:22;;;;;;;34.85;10.70;;;;;;;-3.61;97.42;95217.41;5107435;27;20054;-46
2022/02/26 03:32:49;;;;;;;16.63;8.65;;;;;;;-3.64;97.73;95223.53;5114822;27;20058;-47
2022/02/26 03:35:16;;;;;;;16.85;8.80;;;;;;;-3.61;97.28;95227.59;5109035;27;20048;-47
2022/02/26 03:37:43;;;;;;;21.58;8.73;;;;;;;-3.67;96.97;95234.81;5093542;27;20105;-47
2022/02/26 03:40:10;;;;;;;18.08;8.07;;;;;;;-3.74;96.80;95233.72;5110659;27;20109;-50
2022/02/26 03:42:38;;;;;;;24.73;7.20;;;;;;;-3.81;96.52;95235.19;5113960;27;20428;-46
2022/02/26 03:45:07;;;;;;;14.20;7.75;;;;;;;-3.94;97.25;95237.19;5110625;27;20063;-46
2022/02/26 03:47:34;;;;;;;16.55;7.60;;;;;;;-3.90;97.71;95229.16;5108405;27;20556;-49
2022/02/26 03:50:03;;;;;;;13.25;6.95;;;;;;;-3.81;97.19;95235.19;5109413;27;20227;-48
2022/02/26 03:52:32;;;;;;;23.27;7.07;;;;;;;-3.85;97.34;95237.19;5110518;27;20712;-47
2022/02/26 03:55:02;;;;;;;21.58;8.65;;;;;;;-3.81;97.80;95237.75;5113238;27;20043;-47
2022/02/26 03:57:30;;;;;;;22.02;9.82;;;;;;;-3.81;97.77;95242.84;5110043;27;20038;-46
2022/02/26 03:59:57;;;;;;;22.50;9.48;;;;;;;-3.83;97.83;95239.63;5109017;27;20034;-49
2022/02/26 04:02:24;;;;;;;23.45;10.38;;;;;;;-3.80;97.85;95243.63;5108915;27;20058;-47
2022/02/26 04:04:51;;;;;;;19.05;9.65;;;;;;;-3.75;98.38;95246.59;5107868;27;21775;-49
2022/02/26 04:07:18;;;;;;;19.48;10.13;;;;;;;-3.69;98.19;95238.41;5108197;27;20043;-48
2022/02/26 04:09:44;;;;;;;18.15;9.73;;;;;;;-3.74;98.86;95232.94;5109144;27;20040;-46
2022/02/26 04:12:11;;;;;;;20.92;10.75;;;;;;;-3.72;99.19;95231.84;5109615;27;20047;-47
2022/02/26 04:14:38;;;;;;;21.38;11.05;;;;;;;-3.63;98.98;95237.09;5108441;27;20048;-48
2022/02/26 04:17:05;;;;;;;20.52;10.77;;;;;;;-3.63;98.84;95230.25;5109960;27;20036;-46
2022/02/26 04:19:31;;;;;;;24.55;13.48;;;;;;;-3.66;98.94;95240.69;5112019;27;20098;-46
2022/02/26 04:21:58;;;;;;;37.60;13.55;;;;;;;-3.62;99.21;95238.69;5109213;27;20505;-46
2022/02/26 04:24:25;;;;;;;27.20;12.15;;;;;;;-3.61;99.78;95242.84;5108802;27;20044;-46
2022/02/26 04:26:53;;;;;;;28.73;11.90;;;;;;;-3.63;100.00;95239.66;5107748;27;20119;-46
2022/02/26 04:29:20;;;;;;;20.40;10.68;;;;;;;-3.59;99.83;95239.22;5108401;27;20050;-46
2022/02/26 04:31:49;;;;;;;19.95;10.00;;;;;;;-3.52;99.62;95247.16;5107945;27;20051;-47
2022/02/26 04:34:16;;;;;;;26.42;10.50;;;;;;;-3.59;99.24;95231.59;5108336;27;20047;-47
2022/02/26 04:36:43;;;;;;;22.13;10.63;;;;;;;-3.52;99.20;95249.69;5110506;27;20044;-47
2022/02/26 04:39:09;;;;;;;15.15;8.30;;;;;;;-3.52;98.59;95252.25;5113857;27;20044;-51
2022/02/26 04:41:36;;;;;;;17.80;9.60;;;;;;;-3.50;98.54;95256.25;5108304;27;20509;-47
2022/02/26 04:44:03;;;;;;;14.55;7.10;;;;;;;-3.51;98.66;95253.84;5108276;27;20052;-48
2022/02/26 04:46:30;;;;;;;20.08;9.00;;;;;;;-3.54;99.22;95259.22;5107674;27;20028;-46
2022/02/26 04:48:57;;;;;;;19.98;9.65;;;;;;;-3.46;98.61;95266.97;5108589;27;20058;-46
2022/02/26 04:51:24;;;;;;;20.85;10.65;;;;;;;-3.48;98.80;95263.75;5110780;27;20043;-46
2022/02/26 04:53:50;;;;;;;14.57;7.72;;;;;;;-3.46;98.47;95269.53;5107850;27;20166;-46
2022/02/26 04:56:17;;;;;;;26.15;10.45;;;;;;;-3.51;99.00;95266.56;5107795;27;20392;-46
2022/02/26 04:58:44;;;;;;;31.05;15.25;;;;;;;-3.48;99.38;95268.84;5108052;27;20065;-46
2022/02/26 05:01:11;;;;;;;26.75;13.90;;;;;;;-3.50;98.98;95255.44;5107636;27;20043;-47
2022/02/26 05:03:38;;;;;;;23.77;10.63;;;;;;;-3.40;98.63;95269.00;5107073;27;20789;-47
2022/02/26 05:06:04;;;;;;;24.48;9.98;;;;;;;-3.42;98.53;95273.44;5106067;27;20040;-47
2022/02/26 05:08:31;;;;;;;18.90;10.60;;;;;;;-3.48;98.27;95276.50;5107414;27;20115;-47
2022/02/26 05:11:01;;;;;;;24.42;11.32;;;;;;;-3.46;98.21;95292.44;5106233;27;20474;-46
2022/02/26 05:13:28;;;;;;;17.95;9.35;;;;;;;-3.45;98.03;95299.16;5105686;27;20500;-46
2022/02/26 05:15:54;;;;;;;18.90;10.07;;;;;;;-3.48;98.13;95290.03;5104952;27;20044;-46
2022/02/26 05:18:21;;;;;;;28.80;13.00;;;;;;;-3.47;98.08;95290.84;5108745;27;20039;-48
2022/02/26 05:20:48;;;;;;;22.00;13.40;;;;;;;-3.39;98.14;95293.50;5108131;27;20402;-51
2022/02/26 05:23:15;;;;;;;34.47;11.23;;;;;;;-3.38;97.92;95299.44;5107064;27;20051;-46
2022/02/26 05:25:42;;;;;;;20.35;11.52;;;;;;;-3.37;97.79;95301.81;5109416;27;20042;-45
2022/02/26 05:28:08;;;;;;;24.65;11.18;;;;;;;-3.31;97.75;95311.50;5107021;27;20513;-47
2022/02/26 05:30:35;;;;;;;19.80;10.35;;;;;;;-3.33;97.55;95312.56;5109042;27;20047;-46
2022/02/26 05:33:02;;;;;;;29.13;12.73;;;;;;;-3.28;97.42;95311.25;5090030;28;20100;-45
2022/02/26 05:35:30;;;;;;;23.40;13.48;;;;;;;-3.35;97.53;95305.06;5112731;27;20043;-47
2022/02/26 05:37:57;;;;;;;26.63;15.27;;;;;;;-3.30;97.72;95318.19;5106614;27;20048;-47
2022/02/26 05:40:24;;;;;;;28.73;13.07;;;;;;;-3.32;98.38;95327.72;5112187;27;20051;-47
2022/02/26 05:42:52;;;;;;;23.63;13.48;;;;;;;-3.31;98.51;95315.81;5105751;28;20044;-47
2022/02/26 05:45:19;;;;;;;25.40;13.95;;;;;;;-3.14;98.65;95332.94;5104685;27;20044;-47
2022/02/26 05:47:46;;;;;;;29.15;13.02;;;;;;;-3.04;98.58;95332.97;5105949;27;20032;-50
2022/02/26 05:50:13;;;;;;;30.15;15.48;;;;;;;-2.93;97.89;95348.13;5104827;27;20043;-47
2022/02/26 05:52:41;;;;;;;29.90;17.80;;;;;;;-2.94;97.53;95332.94;5104270;27;20035;-49
2022/02/26 05:55:08;;;;;;;40.95;23.13;;;;;;;-2.79;97.56;95346.09;5102570;27;20137;-46
2022/02/26 05:57:35;;;;;;;47.85;23.52;;;;;;;-2.65;97.11;95332.91;5084837;28;20050;-46
2022/02/26 06:00:05;;;;;;;36.67;19.88;;;;;;;-2.58;97.26;95344.19;5107556;27;20039;-49
2022/02/26 06:02:32;;;;;;;43.53;21.05;;;;;;;-2.43;97.18;95351.41;5108051;27;20043;-47
2022/02/26 06:04:59;;;;;;;37.78;23.23;;;;;;;-2.24;96.83;95341.16;5106309;27;20046;-50
2022/02/26 06:07:26;;;;;;;35.97;21.58;;;;;;;-2.23;96.76;95332.56;5107435;27;20039;-46
2022/02/26 06:09:53;;;;;;;56.65;20.52;;;;;;;-1.95;96.34;95340.25;5103038;28;20630;-48
2022/02/26 06:12:20;;;;;;;36.42;20.95;;;;;;;-1.78;96.35;95342.06;5103319;27;20051;-46
2022/02/26 06:14:47;;;;;;;38.33;18.92;;;;;;;-1.60;96.50;95344.66;5108774;28;20116;-46
2022/02/26 06:17:14;;;;;;;60.90;30.02;;;;;;;-1.41;96.51;95335.25;5105979;28;20509;-48
2022/02/26 06:19:41;;;;;;;46.70;26.35;;;;;;;-1.12;95.76;95358.06;5105413;28;20128;-47
2022/02/26 06:22:07;;;;;;;41.75;22.05;;;;;;;-0.93;94.92;95361.44;5106578;28;20036;-46
2022/02/26 06:24:35;;;;;;;29.25;17.02;;;;;;;-0.74;94.19;95361.25;5106607;27;20058;-46
2022/02/26 06:27:02;;;;;;;42.33;17.90;;;;;;;-0.56;93.46;95353.56;5104924;28;20109;-47
2022/02/26 06:29:29;;;;;;;27.00;12.90;;;;;;;-0.40;92.31;95356.25;5112661;27;20075;-45
2022/02/26 06:31:56;;;;;;;23.35;13.13;;;;;;;-0.27;91.47;95355.88;5089026;28;20101;-48
2022/02/26 06:34:24;;;;;;;38.47;17.88;;;;;;;-0.04;90.96;95357.91;5115176;28;20047;-47
2022/02/26 06:36:51;;;;;;;31.05;13.52;;;;;;;0.17;89.62;95358.31;5107427;28;20038;-47
2022/02/26 06:39:18;;;;;;;29.30;16.35;;;;;;;0.29;89.07;95358.03;5107530;28;20043;-51
2022/02/26 06:41:45;;;;;;;26.63;14.45;;;;;;;0.47;88.77;95361.34;5107404;28;20082;-47
2022/02/26 06:44:12;;;;;;;23.60;12.15;;;;;;;0.68;87.86;95372.94;5091189;28;20089;-47
2022/02/26 06:46:39;;;;;;;23.00;10.23;;;;;;;0.86;87.26;95377.94;5107927;28;20051;-46
2022/02/26 06:49:06;;;;;;;23.58;11.18;;;;;;;0.99;85.05;95375.75;5112008;28;20044;-46
2022/02/26 06:51:34;;;;;;;17.75;8.73;;;;;;;1.14;84.38;95363.88;5106870;28;20036;-47
2022/02/26 06:54:01;;;;;;;16.65;9.45;;;;;;;1.52;82.56;95381.38;5108143;28;20047;-48
2022/02/26 06:56:27;;;;;;;20.92;10.68;;;;;;;1.64;79.28;95390.38;5109997;27;20039;-46
2022/02/26 06:58:54;;;;;;;25.80;12.32;;;;;;;1.89;79.54;95373.16;5109661;27;20043;-47
2022/02/26 07:01:22;;;;;;;25.10;10.48;;;;;;;2.03;76.86;95369.09;5110371;27;20027;-47
2022/02/26 07:03:49;;;;;;;20.10;10.15;;;;;;;2.21;74.95;95381.75;5110296;27;20046;-50
2022/02/26 07:06:16;;;;;;;21.52;9.65;;;;;;;2.24;72.06;95380.63;5109304;27;20043;-48
2022/02/26 07:08:43;;;;;;;19.95;10.50;;;;;;;2.35;72.36;95372.56;5116576;27;21092;-47
2022/02/26 07:11:10;;;;;;;23.05;9.70;;;;;;;2.41;72.05;95381.38;5117119;27;20543;-47
2022/02/26 07:13:37;;;;;;;24.67;11.35;;;;;;;2.60;72.42;95385.31;5110502;27;20063;-45
2022/02/26 07:16:04;;;;;;;24.80;12.32;;;;;;;2.74;71.23;95382.06;5113530;27;20051;-48
2022/02/26 07:18:31;;;;;;;24.33;12.00;;;;;;;2.92;71.29;95383.53;5111564;27;20043;-50
2022/02/26 07:20:58;;;;;;;21.73;10.45;;;;;;;2.98;71.29;95373.38;5113274;27;20508;-48
2022/02/26 07:23:24;;;;;;;23.08;10.25;;;;;;;2.95;67.60;95370.34;5110610;27;20039;-49
2022/02/26 07:25:51;;;;;;;29.67;12.60;;;;;;;2.89;69.07;95378.75;5111451;27;20047;-47
2022/02/26 07:28:18;;;;;;;32.80;14.45;;;;;;;2.85;69.69;95373.94;5110750;27;20554;-51
2022/02/26 07:30:52;;;;;;;22.60;11.52;;;;;;;2.96;69.09;95369.41;5112353;27;20039;-47
2022/02/26 07:33:19;;;;;;;23.77;11.88;;;;;;;3.03;68.90;95370.31;5110340;27;20428;-47
2022/02/26 07:35:46;;;;;;;25.38;13.45;;;;;;;3.05;67.61;95373.50;5110798;27;20048;-48
2022/02/26 07:38:13;;;;;;;19.27;10.23;;;;;;;3.06;66.18;95380.25;5110874;27;20516;-47
2022/02/26 07:40:42;;;;;;;29.85;13.45;;;;;;;3.17;66.40;95371.34;5110714;27;20039;-48
2022/02/26 07:43:10;;;;;;;26.42;12.13;;;;;;;3.27;68.43;95379.63;5109947;27;20512;-47
2022/02/26 07:45:37;;;;;;;17.52;8.90;;;;;;;3.15;68.92;95374.09;5113181;27;20054;-47
2022/02/26 07:48:04;;;;;;;26.60;12.13;;;;;;;3.06;68.49;95359.66;5110721;27;20093;-48
2022/02/26 07:50:31;;;;;;;26.05;10.82;;;;;;;3.18;69.37;95372.94;5108736;27;20043;-49
2022/02/26 07:52:58;;;;;;;21.27;10.85;;;;;;;3.43;70.42;95371.00;5111249;27;20051;-47
2022/02/26 07:55:25;;;;;;;28.45;11.85;;;;;;;3.66;69.48;95370.19;5089736;27;20514;-47
2022/02/26 07:57:52;;;;;;;34.88;15.75;;;;;;;3.75;67.89;95380.22;5108478;27;20055;-50
2022/02/26 08:00:19;;;;;;;25.52;12.85;;;;;;;3.81;67.65;95378.72;5110217;27;20074;-51
2022/02/26 08:02:45;;;;;;;21.52;10.52;;;;;;;3.82;67.42;95375.19;5112618;27;20043;-47
2022/02/26 08:05:12;;;;;;;21.02;10.77;;;;;;;3.89;67.81;95368.38;5113092;27;20043;-49
2022/02/26 08:07:45;;;;;;;19.38;10.50;;;;;;;3.77;67.95;95373.13;5116134;27;20492;-47
2022/02/26 08:10:12;;;;;;;17.23;8.35;;;;;;;3.93;67.51;95372.19;5109770;27;20074;-50
2022/02/26 08:12:40;;;;;;;19.55;9.68;;;;;;;3.92;67.38;95369.78;5109223;27;20043;-49
2022/02/26 08:15:07;;;;;;;23.58;11.30;;;;;;;3.99;67.59;95371.47;5109753;27;20122;-48
2022/02/26 08:17:34;;;;;;;17.92;10.10;;;;;;;3.98;67.47;95364.72;5109963;27;20039;-47
2022/02/26 08:20:03;;;;;;;18.20;10.55;;;;;;;4.18;66.83;95369.38;5113285;27;20057;-48
2022/02/26 08:22:29;;;;;;;23.73;9.90;;;;;;;4.35;66.67;95369.97;5108771;27;20455;-47
2022/02/26 08:24:56;;;;;;;21.05;9.55;;;;;;;4.46;67.24;95368.72;5114761;27;20132;-46
2022/02/26 08:27:23;;;;;;;20.27;10.30;;;;;;;4.49;67.11;95358.84;5108378;27;20116;-49
2022/02/26 08:29:50;;;;;;;21.00;10.20;;;;;;;4.52;66.04;95355.09;5106421;27;20063;-46
2022/02/26 08:32:17;;;;;;;23.42;10.15;;;;;;;4.73;66.36;95356.94;5105973;27;20116;-48
2022/02/26 08:34:43;;;;;;;22.10;11.38;;;;;;;4.96;66.59;95351.63;5111794;27;20048;-48
2022/02/26 08:37:10;;;;;;;24.58;11.02;;;;;;;5.09;65.55;95340.63;5108235;27;20047;-45
2022/02/26 08:39:38;;;;;;;24.38;11.18;;;;;;;5.27;65.01;95353.13;5118203;27;20048;-47
2022/02/26 08:42:05;;;;;;;24.48;14.20;;;;;;;5.49;64.32;95346.97;5104966;27;22138;-49
2022/02/26 08:44:33;;;;;;;24.27;11.27;;;;;;;5.64;63.82;95348.69;5104877;27;20745;-49
2022/02/26 08:47:02;;;;;;;22.25;11.80;;;;;;;5.39;64.27;95341.31;5115323;27;20441;-47
2022/02/26 08:49:29;;;;;;;20.40;11.13;;;;;;;5.47;64.17;95343.75;5108742;27;20509;-46
2022/02/26 08:51:57;;;;;;;22.63;9.60;;;;;;;5.51;63.03;95339.84;5106995;27;20798;-45
2022/02/26 08:54:29;;;;;;;23.05;10.68;;;;;;;5.53;63.93;95337.88;5108712;27;20492;-45
2022/02/26 08:56:56;;;;;;;22.95;12.30;;;;;;;5.48;63.41;95335.03;5106294;27;20075;-44
2022/02/26 08:59:23;;;;;;;20.90;10.52;;;;;;;5.54;63.21;95333.50;5108510;27;20067;-44
2022/02/26 09:01:50;;;;;;;27.70;13.20;;;;;;;5.57;63.22;95327.16;5112887;27;20096;-46
2022/02/26 09:04:17;;;;;;;22.35;10.65;;;;;;;5.80;67.89;95321.75;5111595;27;20047;-48
2022/02/26 09:06:44;;;;;;;22.17;10.48;;;;;;;6.00;62.99;95327.09;5108348;27;20040;-46
2022/02/26 09:09:11;;;;;;;23.67;11.20;;;;;;;6.09;61.29;95325.94;5109198;27;20051;-47
2022/02/26 09:11:38;;;;;;;24.38;11.35;;;;;;;6.13;60.18;95322.00;5094846;27;20059;-47
2022/02/26 09:14:06;;;;;;;24.10;11.38;;;;;;;6.30;60.72;95323.28;5108578;27;20051;-45
2022/02/26 09:16:33;;;;;;;20.02;11.18;;;;;;;6.57;60.78;95315.63;5107773;27;20052;-46
2022/02/26 09:19:00;;;;;;;22.77;10.25;;;;;;;6.68;58.90;95315.06;5109095;27;20051;-46
2022/02/26 09:21:27;;;;;;;28.80;11.70;;;;;;;6.75;57.91;95311.69;5107943;27;20071;-45
2022/02/26 09:23:54;;;;;;;25.48;13.40;;;;;;;6.92;58.64;95325.88;5108365;27;20035;-49
2022/02/26 09:26:21;;;;;;;25.85;13.63;;;;;;;7.10;58.03;95317.56;5108644;27;20516;-48
2022/02/26 09:28:49;;;;;;;31.67;14.27;;;;;;;7.27;57.32;95317.97;5087221;28;20473;-47
2022/02/26 09:31:16;;;;;;;15.90;8.50;;;;;;;7.00;57.19;95317.13;5114360;27;20040;-45
2022/02/26 09:33:42;;;;;;;27.63;11.35;;;;;;;7.01;57.57;95309.16;5107980;27;20063;-45
2022/02/26 09:36:10;;;;;;;19.50;11.07;;;;;;;7.22;57.38;95310.00;5109722;27;20044;-44
2022/02/26 09:38:39;;;;;;;24.83;11.32;;;;;;;7.32;56.74;95310.41;5108643;27;20048;-48
2022/02/26 09:41:07;;;;;;;19.17;10.70;;;;;;;7.61;55.86;95311.00;5109032;27;20047;-46
2022/02/26 09:43:35;;;;;;;22.38;9.00;;;;;;;7.99;53.38;95303.38;5107975;27;20039;-46
2022/02/26 09:46:03;;;;;;;21.58;9.70;;;;;;;8.30;52.90;95306.28;5113515;27;20066;-46
2022/02/26 09:48:30;;;;;;;20.80;11.15;;;;;;;8.31;52.38;95313.09;5107439;28;20039;-48
2022/02/26 09:50:58;;;;;;;14.48;6.88;;;;;;;8.10;51.88;95316.72;5114275;27;20039;-46
2022/02/26 09:53:25;;;;;;;20.33;9.50;;;;;;;7.99;51.05;95298.19;5107163;27;20055;-47
2022/02/26 09:55:56;;;;;;;18.13;9.68;;;;;;;8.23;52.15;95307.13;5108025;27;20048;-45
2022/02/26 09:58:24;;;;;;;19.85;10.27;;;;;;;8.10;52.31;95296.75;5107008;27;20489;-50
2022/02/26 10:00:51;;;;;;;18.02;10.05;;;;;;;8.38;50.95;95306.09;5105906;27;20050;-47
2022/02/26 10:03:33;;;;;;;20.58;9.43;;;;;;;8.82;49.67;95301.91;5114341;27;20660;-48
2022/02/26 10:06:14;;;;;;;26.05;10.32;;;;;;;9.13;49.39;95305.56;5107875;27;20047;-47
2022/02/26 10:08:45;;;;;;;17.25;9.18;;;;;;;9.10;47.65;95295.59;5106719;27;22016;-47
2022/02/26 10:11:24;;;;;;;12.55;7.30;;;;;;;9.07;47.58;95301.19;5109399;27;20047;-47
2022/02/26 10:14:04;;;;;;;14.98;8.38;;;;;;;9.08;47.04;95295.00;5109104;27;20047;-45
2022/02/26 10:17:00;;;;;;;18.23;8.88;;;;;;;9.40;47.70;95292.34;5106537;28;20100;-45
2022/02/26 10:19:29;;;;;;;18.73;10.35;;;;;;;9.88;46.72;95284.75;5112730;28;20047;-46
2022/02/26 10:22:00;;;;;;;17.63;10.52;;;;;;;10.09;45.59;95283.53;5111195;28;20043;-48
2022/02/26 10:24:29;;;;;;;16.17;9.10;;;;;;;10.06;44.94;95289.16;5110687;28;20043;-45
2022/02/26 10:27:10;;;;;;;18.40;8.60;;;;;;;10.05;44.14;95287.59;5108383;28;20047;-46
2022/02/26 10:29:39;;;;;;;15.70;7.45;;;;;;;10.21;45.37;95275.00;5114495;27;20101;-46
2022/02/26 10:32:08;;;;;;;16.55;9.15;;;;;;;10.62;44.45;95279.56;5111585;27;20507;-48
2022/02/26 10:34:39;;;;;;;18.13;8.75;;;;;;;10.82;43.71;95276.72;5111030;27;20050;-46
2022/02/26 10:37:11;;;;;;;15.30;8.77;;;;;;;10.83;42.52;95273.06;5110135;27;20409;-45
2022/02/26 10:39:39;;;;;;;19.00;8.60;;;;;;;10.59;42.94;95272.19;5110245;27;20035;-48
2022/02/26 10:42:09;;;;;;;14.00;8.25;;;;;;;10.68;42.25;95275.31;5110587;27;20460;-48
2022/02/26 10:44:36;;;;;;;19.42;8.30;;;;;;;10.99;41.71;95265.66;5110117;27;20573;-50
2022/02/26 10:47:08;;;;;;;17.92;9.02;;;;;;;11.22;42.63;95265.72;5109538;27;20039;-50
2022/02/26 10:49:40;;;;;;;14.85;7.72;;;;;;;11.45;40.57;95269.38;5109532;27;20541;-49
2022/02/26 10:52:09;;;;;;;18.00;8.77;;;;;;;11.65;41.55;95264.63;5109769;27;20048;-46
2022/02/26 10:54:38;;;;;;;17.65;9.05;;;;;;;11.98;40.75;95258.06;5110229;27;20051;-46
2022/02/26 10:57:08;;;;;;;21.42;12.48;;;;;;;12.43;41.33;95254.78;5110479;27;20043;-48
2022/02/26 10:59:41;;;;;;;19.40;9.00;;;;;;;12.74;39.65;95250.16;5113753;27;20043;-50
2022/02/26 11:02:22;;;;;;;17.83;8.70;;;;;;;12.72;38.11;95246.19;5110409;27;20031;-47
2022/02/26 11:04:50;;;;;;;13.10;8.15;;;;;;;12.10;38.93;95238.97;5108022;27;20108;-45
2022/02/26 11:07:18;;;;;;;17.48;9.88;;;;;;;12.31;39.96;95240.97;5109168;27;20048;-48
2022/02/26 11:09:49;;;;;;;15.90;9.68;;;;;;;12.58;39.09;95235.22;5113238;27;20070;-46
2022/02/26 11:12:17;;;;;;;17.38;8.77;;;;;;;12.43;38.44;95236.50;5110524;27;20104;-45
2022/02/26 11:15:00;;;;;;;17.05;8.45;;;;;;;12.46;38.31;95231.84;5110449;27;20576;-47
2022/02/26 11:17:29;;;;;;;18.02;8.60;;;;;;;12.53;38.72;95232.50;5107781;27;20046;-46
2022/02/26 11:19:59;;;;;;;17.33;9.20;;;;;;;12.33;38.83;95223.25;5108531;27;20048;-45
2022/02/26 11:22:27;;;;;;;19.10;8.40;;;;;;;12.47;38.36;95223.00;5110414;27;20465;-45
2022/02/26 11:24:54;;;;;;;14.25;8.55;;;;;;;12.62;38.69;95215.41;5110763;27;20035;-45
2022/02/26 11:27:25;;;;;;;21.80;9.88;;;;;;;12.93;38.29;95229.84;5110442;27;20043;-48